WXM80 ListenWXM80 Stop

You find our weather info also at:

UK Metoffice

WeatherCloud

Weather Underground

Northeastern Weather Network

AWEKAS

Citizen Weather Observer Program (CWOP)

HAMweather, WeatherForYou, PWS Weather


Weather Underground History page Text

Daily Summary for February 4, 2017 Units:  Metric    English   Both
« Previous Day
Next Day »
Daily Weekly Monthly Yearly Custom
  High: Low: Average:
Temperature: 1.1 °C -5.1 °C -1.9 °C
Dew Point: -8.8 °C -12.1 °C -10.7 °C
Humidity: 63 % 41 % 52 %
Wind Speed: 19.8 km/h 0 km/h 8.5 km/h
Wind Gust: 35.2 km/h - -
Wind:- - West
Pressure: 1027.7 hPa 1021.9 hPa -
Precipitation: 0 mm    
Historical Graphs
 
 
Tabular Data for February 4, 2017
Time Temperature Dew Point Pressure Wind Wind Speed Wind Gust Humidity Rainfall Rate (Hourly)
00:01 -2.4 °C -10.7 °C 1021.9 hPa North 12.9 km/h 20.4 km/h 53 % 0 mm
00:06 -2.6 °C -10.6 °C 1021.9 hPa NW 14.6 km/h 35.2 km/h 54 % 0 mm
00:11 -2.6 °C -10.7 °C 1021.9 hPa WNW 13 km/h 24.1 km/h 54 % 0 mm
00:16 -2.7 °C -10.3 °C 1021.9 hPa NW 13.7 km/h 25.9 km/h 56 % 0 mm
00:21 -2.8 °C -10.6 °C 1021.9 hPa North 6.1 km/h 25.9 km/h 55 % 0 mm
00:26 -2.8 °C -10.8 °C 1021.9 hPa WNW 14 km/h 33.3 km/h 54 % 0 mm
00:31 -2.9 °C -10.9 °C 1021.9 hPa NW 7.4 km/h 18.5 km/h 54 % 0 mm
00:36 -3.1 °C -11.1 °C 1021.9 hPa WNW 14.5 km/h 29.6 km/h 54 % 0 mm
00:41 -3.2 °C -10.9 °C 1021.9 hPa West 8.7 km/h 20.4 km/h 55 % 0 mm
00:46 -3.2 °C -11 °C 1021.9 hPa NW 11.3 km/h 22.2 km/h 55 % 0 mm
00:52 -3.3 °C -11.1 °C 1022.2 hPa NNE 8.2 km/h 31.5 km/h 55 % 0 mm
00:57 -3.4 °C -11.2 °C 1022.2 hPa NNW 13.4 km/h 24.1 km/h 55 % 0 mm
01:02 -3.4 °C -10.8 °C 1022.6 hPa NNW 8 km/h 22.5 km/h 57 % 0 mm
01:07 -3.5 °C -11 °C 1022.6 hPa NW 8.4 km/h 18.5 km/h 56 % 0 mm
01:12 -3.5 °C -11 °C 1022.6 hPa NW 7.9 km/h 18.5 km/h 56 % 0 mm
01:17 -3.6 °C -10.6 °C 1022.6 hPa West 6.3 km/h 12.9 km/h 58 % 0 mm
01:22 -3.6 °C -10.6 °C 1022.2 hPa West 7.6 km/h 16.7 km/h 58 % 0 mm
01:27 -3.7 °C -11.2 °C 1022.2 hPa NW 11.6 km/h 18.5 km/h 56 % 0 mm
01:32 -3.7 °C -11.4 °C 1022.6 hPa NW 14.3 km/h 25.9 km/h 55 % 0 mm
01:37 -3.7 °C -10.8 °C 1022.6 hPa NW 15.4 km/h 24.1 km/h 58 % 0 mm
01:42 -3.8 °C -11.3 °C 1022.2 hPa WNW 15 km/h 24.1 km/h 56 % 0 mm
01:47 -3.8 °C -11.1 °C 1022.6 hPa NNW 12.2 km/h 18.5 km/h 57 % 0 mm
01:52 -3.8 °C -11.6 °C 1022.6 hPa WNW 13.5 km/h 27.4 km/h 55 % 0 mm
01:57 -3.8 °C -11.3 °C 1022.9 hPa NW 13.8 km/h 24.1 km/h 56 % 0 mm
02:02 -3.9 °C -11.4 °C 1022.9 hPa NNW 11.9 km/h 20.4 km/h 56 % 0 mm
02:07 -3.9 °C -11.4 °C 1022.9 hPa NW 12.9 km/h 19.3 km/h 56 % 0 mm
02:12 -3.9 °C -11.2 °C 1023.2 hPa NNW 10.3 km/h 20.4 km/h 57 % 0 mm
02:17 -4 °C -11.5 °C 1023.2 hPa NNW 12.4 km/h 16.1 km/h 56 % 0 mm
02:22 -4.1 °C -11.6 °C 1022.9 hPa NW 12.1 km/h 18.5 km/h 56 % 0 mm
02:27 -4.1 °C -11.6 °C 1022.9 hPa NW 12.9 km/h 20.9 km/h 56 % 0 mm
02:33 -4.1 °C -11.4 °C 1022.9 hPa WNW 8 km/h 27.8 km/h 57 % 0 mm
02:38 -4.2 °C -11.7 °C 1022.9 hPa NW 11.4 km/h 25.9 km/h 56 % 0 mm
02:43 -4.2 °C -11.7 °C 1023.2 hPa NW 12.4 km/h 25.9 km/h 56 % 0 mm
02:48 -4.2 °C -11.7 °C 1023.2 hPa SW 15.1 km/h 27.8 km/h 56 % 0 mm
02:53 -4.2 °C -11.7 °C 1023.2 hPa WNW 10.9 km/h 18.5 km/h 56 % 0 mm
02:58 -4.2 °C -11.5 °C 1023.2 hPa WNW 11.1 km/h 18.5 km/h 57 % 0 mm
03:03 -4.3 °C -12 °C 1023.2 hPa NW 8.7 km/h 14.8 km/h 55 % 0 mm
03:08 -4.3 °C -11.8 °C 1023.2 hPa West 10.5 km/h 30.6 km/h 56 % 0 mm
03:13 -4.4 °C -11.9 °C 1023.2 hPa WNW 10.1 km/h 18.5 km/h 56 % 0 mm
03:18 -4.4 °C -11.9 °C 1023.2 hPa NW 11.9 km/h 29.6 km/h 56 % 0 mm
03:23 -4.4 °C -11.5 °C 1023.2 hPa West 11.7 km/h 25.7 km/h 58 % 0 mm
03:28 -4.4 °C -11.9 °C 1023.6 hPa WNW 15.6 km/h 27.8 km/h 56 % 0 mm
03:33 -4.5 °C -11.7 °C 1023.6 hPa WNW 10.5 km/h 24.1 km/h 57 % 0 mm
03:38 -4.6 °C -12 °C 1023.6 hPa WNW 15 km/h 27.4 km/h 56 % 0 mm
03:43 -4.6 °C -12.1 °C 1023.6 hPa NW 14.2 km/h 29.6 km/h 56 % 0 mm
03:48 -4.6 °C -11.6 °C 1023.6 hPa NW 8 km/h 18.5 km/h 58 % 0 mm
03:53 -4.7 °C -11.7 °C 1023.6 hPa NW 14.8 km/h 20.4 km/h 58 % 0 mm
03:58 -4.7 °C -11.4 °C 1023.9 hPa NW 13.8 km/h 25.9 km/h 59 % 0 mm
04:03 -4.7 °C -11.9 °C 1023.9 hPa WNW 17.5 km/h 27.8 km/h 57 % 0 mm
04:08 -4.7 °C -11.5 °C 1024.3 hPa WNW 10.5 km/h 18.5 km/h 59 % 0 mm
04:13 -4.7 °C -11.5 °C 1024.3 hPa NW 15.8 km/h 18.5 km/h 59 % 0 mm
04:18 -4.7 °C -11.5 °C 1024.3 hPa NW 9.5 km/h 22.5 km/h 59 % 0 mm
04:23 -4.7 °C -11.3 °C 1024.3 hPa NW 10.8 km/h 16.7 km/h 60 % 0 mm
04:28 -4.7 °C -11.5 °C 1024.3 hPa West 9.7 km/h 24.1 km/h 59 % 0 mm
04:33 -4.7 °C -11.6 °C 1024.3 hPa WNW 9.7 km/h 22.5 km/h 59 % 0 mm
04:38 -4.8 °C -11.6 °C 1024.3 hPa NW 14.8 km/h 22.2 km/h 59 % 0 mm
04:43 -4.8 °C -11.6 °C 1024.6 hPa WNW 14.5 km/h 32.2 km/h 59 % 0 mm
04:48 -4.8 °C -11.4 °C 1024.6 hPa WNW 16.1 km/h 25.7 km/h 60 % 0 mm
04:53 -4.8 °C -11.6 °C 1024.6 hPa West 14.5 km/h 27.4 km/h 59 % 0 mm
04:58 -4.8 °C -11.6 °C 1024.6 hPa WNW 10.9 km/h 19.3 km/h 59 % 0 mm
05:03 -4.8 °C -11.8 °C 1024.9 hPa WNW 9.7 km/h 22.5 km/h 58 % 0 mm
05:08 -4.8 °C -11.6 °C 1024.9 hPa WNW 12.9 km/h 24.1 km/h 59 % 0 mm
05:13 -4.9 °C -11.7 °C 1024.9 hPa WNW 8 km/h 24.1 km/h 59 % 0 mm
05:18 -4.9 °C -11.3 °C 1024.9 hPa West 9.8 km/h 13 km/h 61 % 0 mm
05:23 -4.9 °C -11.5 °C 1024.9 hPa WNW 8 km/h 16.1 km/h 60 % 0 mm
05:28 -4.9 °C -11.3 °C 1024.9 hPa WNW 12.9 km/h 24.1 km/h 61 % 0 mm
05:33 -4.9 °C -11.3 °C 1025.3 hPa West 12.9 km/h 32.2 km/h 61 % 0 mm
05:38 -4.9 °C -11.5 °C 1024.9 hPa WNW 11.3 km/h 25.7 km/h 60 % 0 mm
05:43 -4.9 °C -11.5 °C 1025.3 hPa WNW 8 km/h 27.4 km/h 60 % 0 mm
05:48 -4.9 °C -11.5 °C 1025.3 hPa WNW 16.1 km/h 32.2 km/h 60 % 0 mm
05:53 -4.9 °C -11.5 °C 1025.6 hPa WSW 9.3 km/h 24.1 km/h 60 % 0 mm
05:58 -5 °C -11.6 °C 1025.3 hPa West 9.2 km/h 18.5 km/h 60 % 0 mm
06:03 -5 °C -11.6 °C 1025.3 hPa West 9.7 km/h 19.3 km/h 60 % 0 mm
06:08 -5.1 °C -11.4 °C 1025.3 hPa West 9.7 km/h 17.7 km/h 61 % 0 mm
06:13 -5.1 °C -11.6 °C 1025.6 hPa WSW 9.2 km/h 17.7 km/h 60 % 0 mm
06:18 -5.1 °C -11.5 °C 1025.6 hPa West 14.5 km/h 25.7 km/h 61 % 0 mm
06:23 -5.1 °C -11.5 °C 1025.6 hPa WNW 12.9 km/h 25.7 km/h 61 % 0 mm
06:28 -5.1 °C -11.5 °C 1026 hPa West 9.7 km/h 22.5 km/h 61 % 0 mm
06:33 -5.1 °C -11.5 °C 1026 hPa SW 7.1 km/h 16.7 km/h 61 % 0 mm
06:38 -5.1 °C -11.4 °C 1026 hPa WNW 12.9 km/h 32.2 km/h 61 % 0 mm
06:43 -5.1 °C -11.2 °C 1026 hPa WNW 9.7 km/h 22.5 km/h 62 % 0 mm
06:48 -5.1 °C -11.2 °C 1026.3 hPa WNW 11.3 km/h 20.9 km/h 62 % 0 mm
06:53 -5.1 °C -11.2 °C 1026 hPa WNW 11.3 km/h 11.3 km/h 62 % 0 mm
06:58 -5.1 °C -11.2 °C 1026.3 hPa WSW 6.6 km/h 14.8 km/h 62 % 0 mm
07:03 -5.1 °C -11.2 °C 1026.3 hPa NNW 11.7 km/h 22.5 km/h 62 % 0 mm
07:08 -5.1 °C -11 °C 1026.3 hPa WNW 12.7 km/h 16.1 km/h 63 % 0 mm
07:14 -5.1 °C -11.2 °C 1026.6 hPa WNW 11.3 km/h 22.5 km/h 62 % 0 mm
07:19 -5 °C -10.9 °C 1026.6 hPa WSW 14.2 km/h 22.2 km/h 63 % 0 mm
07:24 -4.9 °C -11.1 °C 1026.6 hPa WNW 12.1 km/h 20.4 km/h 62 % 0 mm
07:29 -4.9 °C -10.9 °C 1026.3 hPa West 8 km/h 22.2 km/h 63 % 0 mm
07:34 -4.9 °C -11.1 °C 1026.3 hPa WNW 7.1 km/h 13 km/h 62 % 0 mm
07:39 -4.9 °C -11.1 °C 1026.6 hPa WSW 7.2 km/h 16.7 km/h 62 % 0 mm
07:44 -4.8 °C -11 °C 1026.6 hPa West 13.8 km/h 18.5 km/h 62 % 0 mm
07:49 -4.8 °C -10.9 °C 1026.6 hPa West 12.7 km/h 18.5 km/h 62 % 0 mm
07:54 -4.8 °C -10.9 °C 1026.6 hPa NW 9.2 km/h 16.7 km/h 62 % 0 mm
07:59 -4.7 °C -10.9 °C 1026.6 hPa WNW 6.1 km/h 13 km/h 62 % 0 mm
08:04 -4.7 °C -10.7 °C 1027 hPa West 11.1 km/h 24.1 km/h 63 % 0 mm
08:09 -4.6 °C -10.6 °C 1026.6 hPa West 8.5 km/h 19.3 km/h 63 % 0 mm
08:14 -4.5 °C -10.5 °C 1026.6 hPa NW 8.7 km/h 18.5 km/h 63 % 0 mm
08:19 -4.4 °C -10.6 °C 1027 hPa WNW 12.4 km/h 24.1 km/h 62 % 0 mm
08:24 -4.3 °C -10.5 °C 1027 hPa WNW 12.6 km/h 13 km/h 62 % 0 mm
08:29 -4.2 °C -10.2 °C 1027 hPa West 9.2 km/h 22.5 km/h 63 % 0 mm
08:34 -4.1 °C -10.3 °C 1027.3 hPa NW 13.5 km/h 25.9 km/h 62 % 0 mm
08:39 -4 °C -10.2 °C 1027.3 hPa WSW 18.2 km/h 29.6 km/h 62 % 0 mm
08:44 -3.9 °C -10.4 °C 1027.3 hPa WNW 12.6 km/h 24.1 km/h 61 % 0 mm
08:49 -3.8 °C -10.4 °C 1027.3 hPa West 11.9 km/h 31.5 km/h 60 % 0 mm
08:54 -3.7 °C -10.1 °C 1027.3 hPa West 8.4 km/h 18.5 km/h 61 % 0 mm
08:59 -3.6 °C -10.2 °C 1027.3 hPa NW 10 km/h 18.5 km/h 60 % 0 mm
09:04 -3.3 °C -10 °C 1027.3 hPa West 6.4 km/h 13 km/h 60 % 0 mm
09:09 -3.2 °C -10.3 °C 1027.3 hPa NNW 9.5 km/h 20.4 km/h 58 % 0 mm
09:15 -3.2 °C -10.1 °C 1027.3 hPa West 6.4 km/h 16.7 km/h 59 % 0 mm
09:20 -3 °C -10.1 °C 1027.3 hPa WSW 19.8 km/h 29.6 km/h 58 % 0 mm
09:25 -3 °C -10.3 °C 1027.7 hPa NW 14 km/h 27.8 km/h 57 % 0 mm
09:30 -3 °C -10.3 °C 1027.3 hPa WNW 8.4 km/h 24.1 km/h 57 % 0 mm
09:35 -2.9 °C -10.3 °C 1027.3 hPa NW 9.7 km/h 16.7 km/h 57 % 0 mm
09:40 -2.8 °C -10.2 °C 1027.3 hPa WSW 6.1 km/h 11.3 km/h 57 % 0 mm
09:45 -2.8 °C -10.3 °C 1027.3 hPa WNW 14.3 km/h 25.9 km/h 56 % 0 mm
09:50 -2.6 °C -10.2 °C 1027.3 hPa SW 6.3 km/h 17.7 km/h 56 % 0 mm
09:55 -2.4 °C -10 °C 1027.3 hPa WSW 11.7 km/h 20.4 km/h 56 % 0 mm
10:00 -2.2 °C -10 °C 1027.7 hPa WSW 8.2 km/h 25.9 km/h 55 % 0 mm
10:05 -2.1 °C -9.9 °C 1027.7 hPa West 15.4 km/h 24.1 km/h 55 % 0 mm
10:10 -1.9 °C -10.1 °C 1027.3 hPa NW 12.4 km/h 24.1 km/h 54 % 0 mm
10:15 -1.9 °C -10.1 °C 1027.3 hPa WNW 10 km/h 18.5 km/h 54 % 0 mm
10:20 -1.8 °C -9.9 °C 1027.3 hPa WSW 7.1 km/h 11.1 km/h 54 % 0 mm
10:25 -1.6 °C -9.7 °C 1027.3 hPa WNW 11.9 km/h 29 km/h 54 % 0 mm
10:30 -1.6 °C -9.9 °C 1027.3 hPa WNW 5.5 km/h 13 km/h 53 % 0 mm
10:35 -1.6 °C -10.2 °C 1027.3 hPa WSW 14.2 km/h 24.1 km/h 52 % 0 mm
10:40 -1.4 °C -10.1 °C 1027.3 hPa WSW 9.5 km/h 25.9 km/h 52 % 0 mm
10:45 -1.3 °C -9.7 °C 1027.3 hPa WNW 10.9 km/h 18.5 km/h 53 % 0 mm
10:50 -1.1 °C -9.5 °C 1027.3 hPa WSW 8.9 km/h 14.5 km/h 53 % 0 mm
10:55 -1 °C -9.9 °C 1027.3 hPa SW 10.8 km/h 19.3 km/h 51 % 0 mm
11:01 -0.9 °C -10.1 °C 1027.3 hPa WNW 16.6 km/h 20.4 km/h 50 % 0 mm
11:06 -1 °C -9.9 °C 1027.3 hPa West 7.4 km/h 14.8 km/h 51 % 0 mm
11:11 -0.9 °C -9.8 °C 1027.3 hPa West 9.3 km/h 18.5 km/h 51 % 0 mm
11:16 -0.9 °C -10.3 °C 1027.3 hPa West 8.9 km/h 18.5 km/h 49 % 0 mm
11:21 -0.9 °C -10.3 °C 1027.3 hPa NW 9.2 km/h 18.5 km/h 49 % 0 mm
11:26 -0.9 °C -10.3 °C 1027 hPa West 11.6 km/h 18.5 km/h 49 % 0 mm
11:31 -0.8 °C -9.7 °C 1027 hPa West 7.6 km/h 14.8 km/h 51 % 0 mm
11:36 -0.7 °C -9.6 °C 1027 hPa NW 11.1 km/h 16.7 km/h 51 % 0 mm
11:41 -0.6 °C -9.8 °C 1027 hPa West 11.1 km/h 17.7 km/h 50 % 0 mm
11:46 -0.6 °C -9.7 °C 1026.6 hPa WNW 10.9 km/h 16.7 km/h 50 % 0 mm
11:51 -0.7 °C -10.1 °C 1026.6 hPa West 14.2 km/h 25.9 km/h 49 % 0 mm
11:56 -0.8 °C -10.4 °C 1026.6 hPa NW 8.9 km/h 18.5 km/h 48 % 0 mm
12:01 -0.8 °C -10.2 °C 1026.6 hPa NW 7.9 km/h 16.7 km/h 49 % 0 mm
12:02 -0.8 °C -10.2 °C 1026.6 hPa WSW 9.7 km/h 12.9 km/h 49 % 0 mm
12:07 -0.8 °C -9.9 °C 1026.3 hPa SW 9.7 km/h 11.3 km/h 50 % 0 mm
12:12 -0.7 °C -10.1 °C 1026.3 hPa WNW 14.5 km/h 20.9 km/h 49 % 0 mm
12:18 -0.6 °C -10 °C 1026.3 hPa WSW 10.8 km/h 18.5 km/h 49 % 0 mm
12:23 -0.6 °C -10 °C 1026.3 hPa WNW 6.4 km/h 14.8 km/h 49 % 0 mm
12:28 -0.5 °C -10.4 °C 1026.3 hPa WSW 8.7 km/h 18.5 km/h 47 % 0 mm
12:33 -0.3 °C -10.1 °C 1026.3 hPa WNW 8 km/h 18.5 km/h 48 % 0 mm
12:38 -0.2 °C -9.7 °C 1026 hPa West 10 km/h 22.2 km/h 49 % 0 mm
12:43 0 °C -9.4 °C 1026.3 hPa West 11.3 km/h 18.5 km/h 49 % 0 mm
12:48 0.1 °C -9.7 °C 1026 hPa WNW 7.6 km/h 14.8 km/h 48 % 0 mm
12:53 0.1 °C -9.6 °C 1026 hPa SW 11.6 km/h 22.2 km/h 48 % 0 mm
12:58 0.2 °C -9.8 °C 1026 hPa WSW 12.4 km/h 18.5 km/h 47 % 0 mm
13:03 0.2 °C -10.1 °C 1026 hPa West 13.4 km/h 20.9 km/h 46 % 0 mm
13:08 0.3 °C -9.7 °C 1025.6 hPa SSW 9.7 km/h 16.7 km/h 47 % 0 mm
13:13 0.4 °C -9.9 °C 1025.6 hPa SW 11.4 km/h 18.5 km/h 46 % 0 mm
13:18 0.6 °C -9.8 °C 1025.6 hPa SW 11.1 km/h 18.5 km/h 46 % 0 mm
13:23 0.7 °C -9.6 °C 1025.6 hPa WSW 6.8 km/h 13 km/h 46 % 0 mm
13:28 0.9 °C -9.4 °C 1025.6 hPa West 8.5 km/h 11.1 km/h 46 % 0 mm
13:33 1.1 °C -9.6 °C 1024.9 hPa WNW 9.2 km/h 13 km/h 45 % 0 mm
13:38 1 °C -9.9 °C 1024.9 hPa West 11.3 km/h 16.7 km/h 44 % 0 mm
13:43 0.9 °C -9.9 °C 1025.3 hPa NW 7.1 km/h 14.8 km/h 44 % 0 mm
13:48 0.9 °C -10.3 °C 1024.9 hPa West 4.7 km/h 14.8 km/h 43 % 0 mm
13:53 0.9 °C -10.3 °C 1024.9 hPa WSW 6.6 km/h 18.5 km/h 43 % 0 mm
13:58 0.8 °C -10.1 °C 1024.9 hPa SSW 4.3 km/h 18.5 km/h 44 % 0 mm
14:03 0.9 °C -10 °C 1024.9 hPa WSW 12.9 km/h 22.5 km/h 44 % 0 mm
14:08 0.9 °C -9.9 °C 1024.9 hPa WSW 4.8 km/h 19.3 km/h 44 % 0 mm
14:13 0.9 °C -9.9 °C 1024.6 hPa WSW 8 km/h 14.5 km/h 44 % 0 mm
14:18 1 °C -9.9 °C 1024.6 hPa SW 7.2 km/h 9.7 km/h 44 % 0 mm
14:23 1.1 °C -10.4 °C 1024.6 hPa WSW 4.8 km/h 19.3 km/h 42 % 0 mm
14:28 1.1 °C -10.2 °C 1024.6 hPa WSW 4.8 km/h 19.3 km/h 43 % 0 mm
14:33 1.1 °C -10.4 °C 1024.6 hPa WSW 4.8 km/h 19.3 km/h 42 % 0 mm
14:38 0.9 °C -10.6 °C 1024.6 hPa West 7.9 km/h 16.7 km/h 42 % 0 mm
14:43 0.8 °C -10.7 °C 1024.6 hPa WSW 9.7 km/h 20.9 km/h 42 % 0 mm
14:48 0.8 °C -10.4 °C 1024.6 hPa SW 8 km/h 16.1 km/h 43 % 0 mm
14:53 0.8 °C -10.4 °C 1024.6 hPa SW 9.7 km/h 20.9 km/h 43 % 0 mm
14:58 0.7 °C -10.8 °C 1024.6 hPa SW 8.9 km/h 20.4 km/h 42 % 0 mm
15:03 0.7 °C -10.8 °C 1024.6 hPa WSW 9.7 km/h 20.9 km/h 42 % 0 mm
15:08 0.6 °C -10.6 °C 1024.9 hPa WSW 9.7 km/h 16.1 km/h 43 % 0 mm
15:13 0.7 °C -10.5 °C 1024.9 hPa WSW 11.3 km/h 20.9 km/h 43 % 0 mm
15:18 0.7 °C -10.8 °C 1024.9 hPa West 11.9 km/h 20.9 km/h 42 % 0 mm
15:23 0.7 °C -10.8 °C 1024.9 hPa WSW 9.7 km/h 22.5 km/h 42 % 0 mm
15:28 0.7 °C -10.5 °C 1024.9 hPa SW 9.7 km/h 19.3 km/h 43 % 0 mm
15:33 0.7 °C -10.8 °C 1024.6 hPa WSW 11.3 km/h 20.9 km/h 42 % 0 mm
15:35 0.7 °C -10.5 °C 1024.6 hPa WSW 8.7 km/h 16.1 km/h 43 % 0 mm
15:40 0.7 °C -10.4 °C 1024.6 hPa SSW 6.3 km/h 24.1 km/h 43 % 0 mm
15:45 0.7 °C -10.8 °C 1024.6 hPa SW 7.2 km/h 22.2 km/h 42 % 0 mm
15:50 0.8 °C -10.7 °C 1024.6 hPa SW 12.1 km/h 16.1 km/h 42 % 0 mm
15:55 0.8 °C -10.7 °C 1024.6 hPa WSW 8.4 km/h 14.8 km/h 42 % 0 mm
16:01 0.8 °C -10.7 °C 1024.6 hPa West 13.5 km/h 19.3 km/h 42 % 0 mm
16:06 0.8 °C -10.9 °C 1024.6 hPa WSW 13.5 km/h 18.5 km/h 41 % 0 mm
16:11 0.8 °C -10.9 °C 1024.6 hPa SSW 6.1 km/h 18.5 km/h 41 % 0 mm
16:16 0.8 °C -10.7 °C 1024.3 hPa WSW 11.9 km/h 18.5 km/h 42 % 0 mm
16:21 0.8 °C -10.7 °C 1024.3 hPa SW 6.6 km/h 18.5 km/h 42 % 0 mm
16:26 0.8 °C -10.7 °C 1024.3 hPa SW 8.4 km/h 14.8 km/h 42 % 0 mm
16:31 0.7 °C -10.8 °C 1024.6 hPa WSW 8 km/h 14.5 km/h 42 % 0 mm
16:33 0.7 °C -10.8 °C 1024.3 hPa SW 5.3 km/h 18.5 km/h 42 % 0 mm
16:38 0.7 °C -10.8 °C 1024.6 hPa SW 10.6 km/h 18.5 km/h 42 % 0 mm
16:43 0.6 °C -10.8 °C 1024.6 hPa WSW 12.2 km/h 16.7 km/h 42 % 0 mm
16:48 0.6 °C -10.9 °C 1024.6 hPa WSW 7.9 km/h 14.5 km/h 42 % 0 mm
16:53 0.6 °C -11.2 °C 1024.6 hPa WSW 9.5 km/h 16.7 km/h 41 % 0 mm
16:58 0.5 °C -10.9 °C 1024.9 hPa SW 6.9 km/h 16.7 km/h 42 % 0 mm
17:03 0.4 °C -11 °C 1024.9 hPa WSW 4.8 km/h 16.1 km/h 42 % 0 mm
17:08 0.4 °C -10.8 °C 1024.9 hPa WSW 3.2 km/h 12.9 km/h 43 % 0 mm
17:13 0.3 °C -10.8 °C 1024.6 hPa WSW 4.8 km/h 12.9 km/h 43 % 0 mm
17:18 0.3 °C -10.9 °C 1024.6 hPa WSW 4.8 km/h 11.3 km/h 43 % 0 mm
17:23 0.2 °C -10.9 °C 1024.6 hPa WSW 4.8 km/h 9.7 km/h 43 % 0 mm
17:28 0.2 °C -10.7 °C 1024.9 hPa WSW 11.3 km/h 19.3 km/h 44 % 0 mm
17:33 0.2 °C -10.6 °C 1024.6 hPa SW 1.6 km/h 19.3 km/h 44 % 0 mm
17:38 0.2 °C -10.3 °C 1024.9 hPa WSW 4.8 km/h 12.9 km/h 45 % 0 mm
17:43 0.2 °C -10.4 °C 1024.9 hPa WSW 3.2 km/h 14.5 km/h 45 % 0 mm
17:48 0.2 °C -10.4 °C 1024.9 hPa WSW 4.8 km/h 9.7 km/h 45 % 0 mm
17:53 0.1 °C -10.4 °C 1024.9 hPa WSW 3.2 km/h 12.9 km/h 45 % 0 mm
17:58 0.1 °C -10.4 °C 1024.9 hPa SSW 5.8 km/h 13 km/h 45 % 0 mm
18:03 0.1 °C -10.5 °C 1024.6 hPa SW 4.8 km/h 12.9 km/h 45 % 0 mm
18:08 0.1 °C -10.5 °C 1024.6 hPa Calm   3.2 km/h 45 % 0 mm
18:13 0 °C -10.6 °C 1024.9 hPa SSW 3.2 km/h 8 km/h 45 % 0 mm
18:18 -0.1 °C -10.9 °C 1024.9 hPa WSW 3.1 km/h 11.1 km/h 44 % 0 mm
18:23 -0.2 °C -10.7 °C 1024.9 hPa SW 3.2 km/h 8 km/h 45 % 0 mm
18:28 -0.2 °C -10.7 °C 1024.9 hPa WSW 3.2 km/h 11.3 km/h 45 % 0 mm
18:33 -0.3 °C -11.1 °C 1024.6 hPa WSW 1.6 km/h 11.3 km/h 44 % 0 mm
18:38 -0.3 °C -11.1 °C 1024.9 hPa WSW 1.6 km/h 4.8 km/h 44 % 0 mm
18:43 -0.4 °C -10.9 °C 1024.9 hPa WSW 1.6 km/h 6.4 km/h 45 % 0 mm
18:48 -0.5 °C -11 °C 1024.9 hPa SW 1.6 km/h 3.2 km/h 45 % 0 mm
18:53 -0.6 °C -11.1 °C 1024.9 hPa Calm   3.2 km/h 45 % 0 mm
18:58 -0.6 °C -10.8 °C 1024.9 hPa South 1.3 km/h 3.7 km/h 46 % 0 mm
19:03 -0.7 °C -10.9 °C 1024.9 hPa SW 3.2 km/h 8 km/h 46 % 0 mm
19:08 -0.8 °C -11.3 °C 1024.9 hPa WSW 3.2 km/h 6.4 km/h 45 % 0 mm
19:13 -0.9 °C -11.1 °C 1024.9 hPa WSW 3.2 km/h 6.4 km/h 46 % 0 mm
19:18 -1 °C -11.2 °C 1024.9 hPa SW 4.8 km/h 8 km/h 46 % 0 mm
19:23 -1.1 °C -11.2 °C 1024.6 hPa SW 4.8 km/h 11.3 km/h 46 % 0 mm
19:28 -1.1 °C -11.3 °C 1024.6 hPa SW 3.2 km/h 6.4 km/h 46 % 0 mm
19:33 -1.1 °C -11.3 °C 1024.9 hPa SW 5.5 km/h 7.4 km/h 46 % 0 mm
19:38 -1.1 °C -11 °C 1024.9 hPa SW 4.8 km/h 9.7 km/h 47 % 0 mm
19:43 -1.1 °C -11 °C 1024.9 hPa WSW 4.8 km/h 11.3 km/h 47 % 0 mm
19:48 -1.1 °C -11.3 °C 1024.9 hPa WSW 3.2 km/h 8 km/h 46 % 0 mm
19:53 -1.1 °C -10.9 °C 1024.9 hPa SSW 7.9 km/h 8 km/h 47 % 0 mm
19:58 -1.1 °C -10.9 °C 1024.9 hPa SSW 3.7 km/h 5.6 km/h 47 % 0 mm
20:03 -1.1 °C -10.9 °C 1024.9 hPa SW 4.8 km/h 6.4 km/h 47 % 0 mm
20:09 -1 °C -10.9 °C 1024.6 hPa SW 2.6 km/h 5.6 km/h 47 % 0 mm
20:14 -1 °C -10.9 °C 1024.6 hPa SW 6.3 km/h 11.1 km/h 47 % 0 mm
20:19 -1 °C -10.9 °C 1024.6 hPa SW 4 km/h 7.4 km/h 47 % 0 mm
20:24 -1 °C -10.9 °C 1024.6 hPa SSW 4.5 km/h 9.3 km/h 47 % 0 mm
20:29 -1 °C -10.9 °C 1024.6 hPa WSW 2.4 km/h 5.6 km/h 47 % 0 mm
20:34 -1 °C -10.7 °C 1024.6 hPa WSW 3.9 km/h 6.4 km/h 48 % 0 mm
20:39 -1.1 °C -10.7 °C 1024.6 hPa SW 7.1 km/h 12.9 km/h 48 % 0 mm
20:44 -1.1 °C -10.7 °C 1024.6 hPa SW 4.3 km/h 7.4 km/h 48 % 0 mm
20:49 -1.1 °C -10.7 °C 1024.6 hPa SW 2.3 km/h 5.6 km/h 48 % 0 mm
20:54 -1.1 °C -10.7 °C 1024.6 hPa SSW 4 km/h 5.6 km/h 48 % 0 mm
20:59 -1.1 °C -10.7 °C 1024.6 hPa SW 5 km/h 8 km/h 48 % 0 mm
21:04 -1.2 °C -10.8 °C 1024.9 hPa WSW 3.4 km/h 5.6 km/h 48 % 0 mm
21:09 -1.2 °C -10.8 °C 1024.9 hPa SW 3.4 km/h 9.3 km/h 48 % 0 mm
21:14 -1.2 °C -10.8 °C 1024.9 hPa WSW 2.9 km/h 5.6 km/h 48 % 0 mm
21:19 -1.3 °C -10.9 °C 1024.9 hPa SW 2.6 km/h 5.6 km/h 48 % 0 mm
21:24 -1.3 °C -10.7 °C 1024.9 hPa SW 1.4 km/h 5.6 km/h 49 % 0 mm
21:29 -1.3 °C -10.7 °C 1024.9 hPa SW 1.9 km/h 5.6 km/h 49 % 0 mm
21:34 -1.4 °C -10.7 °C 1024.9 hPa WSW 1.4 km/h 5.6 km/h 49 % 0 mm
21:39 -1.4 °C -10.8 °C 1024.9 hPa SSW 2.6 km/h 9.3 km/h 49 % 0 mm
21:44 -1.4 °C -10.6 °C 1024.9 hPa Calm   1.9 km/h 50 % 0 mm
21:49 -1.5 °C -10.6 °C 1024.9 hPa Calm   1.9 km/h 50 % 0 mm
21:54 -1.6 °C -10.7 °C 1024.9 hPa SSW 1.4 km/h 3.2 km/h 50 % 0 mm
21:59 -1.6 °C -10.4 °C 1024.9 hPa SSW 0.5 km/h 3.2 km/h 51 % 0 mm
22:05 -1.6 °C -10.4 °C 1024.6 hPa SSW 1.1 km/h 5.6 km/h 51 % 0 mm
22:10 -1.7 °C -10.5 °C 1024.6 hPa SW 0.8 km/h 3.7 km/h 51 % 0 mm
22:15 -1.7 °C -10.2 °C 1024.6 hPa SW 1.3 km/h 3.7 km/h 52 % 0 mm
22:20 -1.7 °C -10.3 °C 1024.6 hPa SW 1.6 km/h 3.7 km/h 52 % 0 mm
22:25 -1.7 °C -10.1 °C 1024.6 hPa WSW 5.8 km/h 16.7 km/h 53 % 0 mm
22:30 -1.7 °C -10 °C 1024.6 hPa SW 1.6 km/h 5.6 km/h 53 % 0 mm
22:35 -1.6 °C -9.7 °C 1024.6 hPa WSW 2.6 km/h 11.1 km/h 54 % 0 mm
22:45 -1.3 °C -9.2 °C 1024.3 hPa WNW 2.6 km/h 6.4 km/h 55 % 0 mm
22:50 -1 °C -9.2 °C 1024.3 hPa WSW 4.2 km/h 5.6 km/h 54 % 0 mm
22:55 -0.8 °C -9.2 °C 1024.3 hPa WSW 4 km/h 7.4 km/h 53 % 0 mm
23:00 -0.7 °C -9.1 °C 1024.3 hPa WSW 6.3 km/h 13 km/h 53 % 0 mm
23:05 -0.5 °C -9.2 °C 1024.3 hPa SW 5.6 km/h 11.1 km/h 52 % 0 mm
23:10 -0.3 °C -9 °C 1024.3 hPa WSW 3.7 km/h 5.6 km/h 52 % 0 mm
23:15 -0.3 °C -8.8 °C 1024.3 hPa WSW 5.3 km/h 13 km/h 53 % 0 mm
23:20 -0.3 °C -8.9 °C 1024.3 hPa West 6 km/h 14.8 km/h 52 % 0 mm
23:25 -0.2 °C -9.2 °C 1024.3 hPa WSW 6.1 km/h 13 km/h 51 % 0 mm
23:30 -0.1 °C -9.1 °C 1024.3 hPa WSW 4.5 km/h 13 km/h 51 % 0 mm
23:35 -0.1 °C -9 °C 1024.3 hPa WSW 1 km/h 5.6 km/h 51 % 0 mm
23:40 -0.1 °C -9 °C 1023.9 hPa SSW 2.4 km/h 5.6 km/h 51 % 0 mm
23:45 -0.1 °C -9 °C 1023.9 hPa Calm   1.9 km/h 51 % 0 mm
23:50 -0.1 °C -9.3 °C 1023.6 hPa WSW 1.9 km/h 7.4 km/h 50 % 0 mm
23:55 -0.1 °C -9.3 °C 1023.9 hPa SW 3.2 km/h 6.4 km/h 50 % 0 mm
Crab Meadow Weather
Compliments of Weather Underground - 3 mb

Script developed by  Jim McMurry - jmcmurry@mwt.net Adapted for the template by  Wim van der Kuil - Leuven-Template.eu

Extremes: The heaviest hailstones on record, weighing up to 2.25 pounds were reported to have killed 92 people in the Gopalganj district of Bangladesh on April 14, 1986.